Time;durP1;ratioP1;P1;durP2;ratioP2;P2;SDS_P1;SDS_P2;PMS_P1;PMS_P2;Temp;Humidity;BMP_temperature;BMP_pressure;BME280_temperature;BME280_humidity;BME280_pressure;Samples;Min_cycle;Max_cycle;Signal;HPM_P1;HPM_P2
2022/12/13 00:02:10;;;;;;;27.45;13.43;;;;;;;-6.19;100.00;101180.19;5069756;28;20141;-69
2022/12/13 00:04:36;;;;;;;25.88;13.73;;;;;;;-6.21;100.00;101172.50;5069829;28;20496;-69
2022/12/13 00:07:01;;;;;;;24.77;13.10;;;;;;;-6.23;100.00;101171.75;5068683;28;20426;-69
2022/12/13 00:09:26;;;;;;;31.95;15.43;;;;;;;-6.25;100.00;101170.13;5069429;28;20471;-69
2022/12/13 00:11:53;;;;;;;32.92;15.30;;;;;;;-6.26;100.00;101176.22;5069712;28;20036;-69
2022/12/13 00:14:18;;;;;;;28.55;14.10;;;;;;;-6.27;100.00;101171.97;5069741;28;20506;-69
2022/12/13 00:16:46;;;;;;;20.90;12.38;;;;;;;-6.29;100.00;101176.41;5069576;28;20029;-69
2022/12/13 00:19:11;;;;;;;25.35;13.63;;;;;;;-6.28;100.00;101178.09;5069619;28;20036;-69
2022/12/13 00:21:37;;;;;;;29.70;13.48;;;;;;;-6.34;100.00;101168.88;5069782;28;20029;-69
2022/12/13 00:24:06;;;;;;;29.35;15.88;;;;;;;-6.32;100.00;101171.38;5069602;28;20029;-69
2022/12/13 00:26:31;;;;;;;30.80;17.08;;;;;;;-6.34;100.00;101170.59;5069459;28;20025;-69
2022/12/13 00:28:59;;;;;;;27.85;14.13;;;;;;;-6.34;100.00;101170.59;5068825;28;20498;-69
2022/12/13 00:31:25;;;;;;;24.30;14.32;;;;;;;-6.34;100.00;101171.47;5068517;28;20036;-69
2022/12/13 00:33:51;;;;;;;24.27;12.80;;;;;;;-6.33;100.00;101169.72;5068615;28;20024;-70
2022/12/13 00:36:16;;;;;;;28.55;14.50;;;;;;;-6.34;100.00;101168.00;5068879;28;20365;-69
2022/12/13 00:38:42;;;;;;;30.50;13.88;;;;;;;-6.33;100.00;101165.34;5068565;28;20529;-69
2022/12/13 00:41:14;;;;;;;27.92;13.82;;;;;;;-6.34;100.00;101163.69;5068599;28;20082;-70
2022/12/13 00:43:40;;;;;;;28.08;15.48;;;;;;;-6.33;100.00;101169.72;5068436;28;20044;-70
2022/12/13 00:46:17;;;;;;;30.42;15.90;;;;;;;-6.35;100.00;101166.34;5068803;28;20035;-69
2022/12/13 00:48:47;;;;;;;27.35;14.27;;;;;;;-6.37;100.00;101165.59;5068896;28;20036;-69
2022/12/13 00:51:12;;;;;;;25.38;13.15;;;;;;;-6.42;100.00;101161.50;5068856;28;20036;-70
2022/12/13 00:53:38;;;;;;;26.60;14.20;;;;;;;-6.46;100.00;101152.19;5069108;28;20025;-69
2022/12/13 00:56:10;;;;;;;25.63;12.70;;;;;;;-6.42;100.00;101160.63;5068986;28;20467;-69
2022/12/13 00:58:35;;;;;;;26.77;15.35;;;;;;;-6.42;100.00;101160.63;5069135;28;20025;-69
2022/12/13 01:01:02;;;;;;;24.52;12.93;;;;;;;-6.43;100.00;101157.19;5069179;28;20028;-69
2022/12/13 01:03:28;;;;;;;25.83;14.23;;;;;;;-6.42;100.00;101163.22;5069242;28;20075;-69
2022/12/13 01:05:53;;;;;;;29.30;14.73;;;;;;;-6.45;100.00;101158.19;5069300;28;20052;-69
2022/12/13 01:08:19;;;;;;;28.25;14.15;;;;;;;-6.45;100.00;101163.38;5069221;28;20071;-69
2022/12/13 01:10:45;;;;;;;27.48;13.07;;;;;;;-6.47;100.00;101163.47;5072852;28;20032;-70
2022/12/13 01:13:12;;;;;;;29.25;13.95;;;;;;;-6.48;100.00;101160.97;5072896;28;20456;-69
2022/12/13 01:15:45;;;;;;;26.92;14.02;;;;;;;-6.50;100.00;101165.38;5072703;28;20119;-70
2022/12/13 01:18:11;;;;;;;27.15;14.68;;;;;;;-6.50;100.00;101155.84;5072703;28;20024;-70
2022/12/13 01:20:37;;;;;;;32.35;14.52;;;;;;;-6.52;100.00;101160.28;5072829;28;20028;-69
2022/12/13 01:23:02;;;;;;;35.03;14.52;;;;;;;-6.53;100.00;101157.75;5072775;28;20074;-69
2022/12/13 01:25:28;;;;;;;24.65;13.23;;;;;;;-6.58;100.00;101151.97;5072499;28;20489;-69
2022/12/13 01:27:53;;;;;;;28.15;14.35;;;;;;;-6.54;100.00;101159.53;5072547;28;20032;-69
2022/12/13 01:30:19;;;;;;;25.17;13.38;;;;;;;-6.57;100.00;101156.25;5072014;28;20557;-69
2022/12/13 01:32:44;;;;;;;27.02;14.32;;;;;;;-6.57;100.00;101151.06;5072092;28;20044;-70
2022/12/13 01:35:10;;;;;;;25.50;13.05;;;;;;;-6.58;100.00;101160.59;5071996;28;20468;-69
2022/12/13 01:37:35;;;;;;;27.42;12.15;;;;;;;-6.59;100.00;101158.91;5072553;28;20233;-70
2022/12/13 01:40:02;;;;;;;28.17;12.52;;;;;;;-6.61;100.00;101158.97;5071984;28;20590;-69
2022/12/13 01:42:28;;;;;;;25.95;13.35;;;;;;;-6.64;100.00;101159.16;5071794;28;20066;-69
2022/12/13 01:45:01;;;;;;;28.55;13.55;;;;;;;-6.62;100.00;101154.72;5070598;28;20039;-69
2022/12/13 01:47:47;;;;;;;31.35;15.52;;;;;;;-6.59;100.00;101158.09;5071556;28;20072;-69
2022/12/13 01:50:18;;;;;;;30.17;14.52;;;;;;;-6.60;100.00;101162.44;5071347;28;20040;-69
2022/12/13 01:52:46;;;;;;;30.30;12.85;;;;;;;-6.61;100.00;101163.34;5071692;28;20036;-69
2022/12/13 01:55:15;;;;;;;32.22;13.90;;;;;;;-6.62;100.00;101151.31;5071216;28;20531;-69
2022/12/13 01:57:44;;;;;;;29.00;14.90;;;;;;;-6.64;100.00;101161.75;5071511;28;20032;-69
2022/12/13 02:00:10;;;;;;;30.15;14.02;;;;;;;-6.65;100.00;101159.25;5072079;28;20035;-69
2022/12/13 02:02:36;;;;;;;32.17;13.38;;;;;;;-6.65;100.00;101162.66;5071252;28;20131;-69
2022/12/13 02:05:23;;;;;;;25.52;14.45;;;;;;;-6.66;100.00;101155.78;5071574;28;20056;-69
2022/12/13 02:07:49;;;;;;;30.85;15.20;;;;;;;-6.72;100.00;101157.88;5069336;28;20088;-69
2022/12/13 02:10:15;;;;;;;29.10;13.73;;;;;;;-6.70;100.00;101166.41;5071064;28;20039;-69
2022/12/13 02:12:41;;;;;;;25.90;12.05;;;;;;;-6.71;100.00;101168.16;5071867;28;20590;-69
2022/12/13 02:15:10;;;;;;;29.02;14.18;;;;;;;-6.71;100.00;101157.78;5070989;28;20044;-69
2022/12/13 02:18:03;;;;;;;31.67;12.55;;;;;;;-6.71;100.00;101156.94;5071190;28;20105;-69
2022/12/13 02:21:02;;;;;;;36.55;14.90;;;;;;;-6.69;100.00;101162.91;5069453;28;20060;-69
2022/12/13 02:23:43;;;;;;;28.25;13.38;;;;;;;-6.68;100.00;101165.44;5071227;28;20099;-69
2022/12/13 02:26:30;;;;;;;26.63;15.32;;;;;;;-6.69;100.00;101161.13;5070990;28;20034;-69
2022/12/13 02:29:01;;;;;;;24.52;11.68;;;;;;;-6.70;100.00;101159.47;5071072;28;20036;-69
2022/12/13 02:31:45;;;;;;;24.80;11.77;;;;;;;-6.69;100.00;101160.31;5071059;28;20054;-69
2022/12/13 02:34:23;;;;;;;30.05;13.93;;;;;;;-6.72;100.00;101158.69;5071226;28;20047;-69
2022/12/13 02:36:56;;;;;;;27.08;13.45;;;;;;;-6.72;100.00;101158.69;5070593;28;21057;-70
2022/12/13 02:39:31;;;;;;;29.20;14.30;;;;;;;-6.76;100.00;101149.38;5071099;28;20099;-69
2022/12/13 02:42:03;;;;;;;28.85;14.27;;;;;;;-6.72;100.00;101150.09;5070616;28;20025;-70
2022/12/13 02:44:36;;;;;;;33.17;16.15;;;;;;;-6.77;100.00;101152.91;5070595;28;20103;-69
2022/12/13 02:47:09;;;;;;;28.83;14.05;;;;;;;-6.76;100.00;101143.38;5070214;28;20395;-69
2022/12/13 02:49:39;;;;;;;29.08;15.15;;;;;;;-6.82;100.00;101139.34;5070963;28;20483;-69
2022/12/13 02:52:07;;;;;;;29.17;15.82;;;;;;;-6.79;100.00;101146.97;5070776;28;20025;-69
2022/12/13 02:54:33;;;;;;;27.33;12.98;;;;;;;-6.84;100.00;101142.03;5070769;28;20054;-69
2022/12/13 02:56:59;;;;;;;27.20;14.65;;;;;;;-6.82;100.00;101141.09;5070683;28;20969;-69
2022/12/13 02:59:30;;;;;;;30.65;14.55;;;;;;;-6.81;100.00;101137.56;5070819;28;20434;-69
2022/12/13 03:02:06;;;;;;;29.27;14.15;;;;;;;-6.85;100.00;101132.56;5070578;28;20021;-69
2022/12/13 03:08:14;;;;;;;27.27;13.38;;;;;;;-6.80;100.00;101140.09;5070518;28;20519;-70
2022/12/13 03:15:57;;;;;;;29.23;13.88;;;;;;;-6.88;100.00;101126.69;5883010;22;20057;-69
2022/12/13 03:18:26;;;;;;;27.70;13.40;;;;;;;-6.87;100.00;101130.94;5556443;22;20233;-65
2022/12/13 03:21:02;;;;;;;32.50;18.73;;;;;;;-6.89;100.00;101128.47;5584320;22;20019;-72
2022/12/13 03:23:28;;;;;;;33.70;15.10;;;;;;;-6.88;100.00;101132.72;5935210;22;20170;-64
2022/12/13 03:25:57;;;;;;;27.40;11.25;;;;;;;-6.89;100.00;101125.88;5050691;28;20450;-64
2022/12/13 03:28:22;;;;;;;29.58;13.77;;;;;;;-6.90;100.00;101125.94;5050511;28;20021;-64
2022/12/13 03:30:48;;;;;;;29.00;13.15;;;;;;;-6.89;100.00;101127.59;5050528;28;20056;-64
2022/12/13 03:33:13;;;;;;;29.35;14.32;;;;;;;-6.90;100.00;101123.34;5050263;28;20383;-64
2022/12/13 03:35:41;;;;;;;37.78;16.02;;;;;;;-6.90;100.00;101141.47;5050343;28;20120;-64
2022/12/13 03:38:06;;;;;;;25.45;12.65;;;;;;;-6.93;100.00;101132.09;5069472;28;20033;-64
2022/12/13 03:40:33;;;;;;;27.08;15.00;;;;;;;-6.93;100.00;101131.28;5069541;28;20347;-64
2022/12/13 03:42:59;;;;;;;29.02;13.70;;;;;;;-6.93;100.00;101132.09;5069372;28;20121;-64
2022/12/13 03:45:24;;;;;;;39.80;16.60;;;;;;;-6.98;100.00;101126.31;5069284;28;20032;-64
2022/12/13 03:47:50;;;;;;;28.23;14.82;;;;;;;-6.96;100.00;101124.50;5069161;28;20044;-64
2022/12/13 03:50:16;;;;;;;26.55;12.80;;;;;;;-6.96;100.00;101132.28;5051242;28;20085;-64
2022/12/13 03:52:41;;;;;;;30.33;16.50;;;;;;;-6.97;100.00;101132.34;5069113;28;20028;-64
2022/12/13 03:55:07;;;;;;;29.95;15.15;;;;;;;-6.96;100.00;101128.84;5051322;28;20053;-64
2022/12/13 03:57:32;;;;;;;32.38;14.90;;;;;;;-7.00;100.00;101127.31;5069078;28;20064;-64
2022/12/13 03:59:58;;;;;;;29.92;12.98;;;;;;;-6.97;100.00;101127.16;5051366;28;20087;-64
2022/12/13 04:02:23;;;;;;;28.90;14.75;;;;;;;-7.07;100.00;101109.47;5069158;28;20036;-64
2022/12/13 04:04:48;;;;;;;28.08;14.23;;;;;;;-7.00;100.00;101122.13;5069149;28;20443;-64
2022/12/13 04:07:14;;;;;;;30.88;13.43;;;;;;;-6.98;100.00;101122.88;5069282;28;20037;-66
2022/12/13 04:09:39;;;;;;;30.27;13.00;;;;;;;-7.07;100.00;101111.25;5049755;28;20036;-64
2022/12/13 04:14:48;;;;;;;28.50;14.13;;;;;;;-7.03;100.00;101123.13;5052237;28;20082;-64
2022/12/13 04:17:14;;;;;;;31.45;15.20;;;;;;;-7.05;100.00;101124.94;5050073;28;20413;-64
2022/12/13 04:19:39;;;;;;;27.63;12.63;;;;;;;-7.05;100.00;101127.53;5049926;28;20962;-64
2022/12/13 04:22:04;;;;;;;33.67;14.80;;;;;;;-7.09;100.00;101108.72;5049956;28;20036;-64
2022/12/13 04:24:30;;;;;;;28.13;13.07;;;;;;;-7.01;100.00;101118.69;5031560;28;20140;-64
2022/12/13 04:26:55;;;;;;;29.25;14.75;;;;;;;-7.03;100.00;101115.34;5049124;28;20065;-64
2022/12/13 04:29:20;;;;;;;35.72;16.52;;;;;;;-7.07;100.00;101109.47;5048257;28;20033;-64
2022/12/13 04:31:46;;;;;;;28.83;14.15;;;;;;;-7.06;100.00;101113.75;5048183;28;20029;-64
2022/12/13 04:34:11;;;;;;;30.65;14.05;;;;;;;-7.06;100.00;101105.13;5048967;28;20032;-64
2022/12/13 04:36:37;;;;;;;26.95;13.95;;;;;;;-7.08;100.00;101107.78;5049407;28;20083;-64
2022/12/13 04:39:04;;;;;;;28.83;12.93;;;;;;;-7.07;100.00;101109.47;5031563;28;20132;-64
2022/12/13 04:41:35;;;;;;;26.50;13.98;;;;;;;-7.07;100.00;101109.47;5049289;28;20089;-64
2022/12/13 04:44:01;;;;;;;29.33;15.00;;;;;;;-7.11;100.00;101101.94;5050014;28;20033;-67
2022/12/13 04:46:26;;;;;;;34.65;17.17;;;;;;;-7.06;100.00;101111.16;5052989;28;20036;-67
2022/12/13 04:48:51;;;;;;;29.17;15.43;;;;;;;-7.08;100.00;101102.59;5053393;28;20029;-69
2022/12/13 04:51:17;;;;;;;32.35;14.68;;;;;;;-7.06;100.00;101105.13;5053319;28;20391;-68
2022/12/13 04:53:42;;;;;;;32.55;16.65;;;;;;;-7.07;100.00;101104.28;5053678;28;20040;-68
2022/12/13 04:56:07;;;;;;;31.55;15.75;;;;;;;-7.07;100.00;101103.47;5053225;28;20382;-68
2022/12/13 04:58:33;;;;;;;28.10;14.65;;;;;;;-7.15;100.00;101095.22;5053183;28;20364;-68
2022/12/13 05:00:58;;;;;;;33.42;14.77;;;;;;;-7.10;100.00;101107.06;5053146;28;20394;-68
2022/12/13 05:03:24;;;;;;;32.20;15.00;;;;;;;-7.18;100.00;101091.03;5052734;28;20540;-67
2022/12/13 05:05:50;;;;;;;29.70;15.95;;;;;;;-7.10;100.00;101101.88;5052624;28;20032;-68
2022/12/13 05:08:15;;;;;;;29.98;14.73;;;;;;;-7.12;100.00;101100.25;5052993;28;20041;-68
2022/12/13 05:10:40;;;;;;;31.33;14.65;;;;;;;-7.09;100.00;101102.69;5052956;28;20029;-67
2022/12/13 05:13:06;;;;;;;29.23;14.45;;;;;;;-7.07;100.00;101100.88;5034844;28;20064;-68
2022/12/13 05:15:32;;;;;;;29.92;14.77;;;;;;;-7.01;100.00;101103.16;5052075;28;20036;-69
2022/12/13 05:18:02;;;;;;;30.92;15.82;;;;;;;-7.01;100.00;101094.53;5052850;28;20035;-69
2022/12/13 05:20:28;;;;;;;25.92;12.60;;;;;;;-6.98;100.00;101095.22;5052321;28;20029;-69
2022/12/13 05:22:57;;;;;;;32.95;15.15;;;;;;;-6.97;100.00;101094.28;5052610;28;20390;-69
2022/12/13 05:25:24;;;;;;;27.48;14.77;;;;;;;-6.99;100.00;101087.53;5045708;28;20053;-69
2022/12/13 05:27:49;;;;;;;33.63;16.63;;;;;;;-6.93;100.00;101079.44;5038319;28;20113;-68
2022/12/13 05:30:14;;;;;;;34.83;14.23;;;;;;;-6.84;100.00;101086.72;5038908;28;20120;-70
2022/12/13 05:32:40;;;;;;;34.00;16.88;;;;;;;-6.82;100.00;101078.88;5051869;28;20059;-69
2022/12/13 05:35:07;;;;;;;31.80;15.25;;;;;;;-6.84;100.00;101077.22;5040774;28;20025;-69
2022/12/13 05:37:32;;;;;;;31.33;14.70;;;;;;;-6.77;100.00;101092.44;5045377;28;20033;-67
2022/12/13 05:39:58;;;;;;;30.23;15.95;;;;;;;-6.78;100.00;101083.81;5044077;28;20118;-69
2022/12/13 05:42:23;;;;;;;30.98;15.52;;;;;;;-6.82;100.00;101074.50;5034911;28;20112;-70
2022/12/13 05:44:51;;;;;;;31.15;16.10;;;;;;;-6.77;100.00;101080.31;5038911;28;20033;-69
2022/12/13 05:47:16;;;;;;;30.65;15.20;;;;;;;-6.76;100.00;101074.19;5043932;28;20037;-69
2022/12/13 05:49:41;;;;;;;31.40;17.30;;;;;;;-6.75;100.00;101070.69;5047094;28;20033;-68
2022/12/13 05:52:20;;;;;;;30.15;16.02;;;;;;;-6.74;100.00;101064.56;5044357;28;20048;-69
2022/12/13 05:54:46;;;;;;;34.13;14.65;;;;;;;-6.63;100.00;101069.19;5043362;28;20041;-70
2022/12/13 05:57:12;;;;;;;30.80;16.15;;;;;;;-6.57;100.00;101063.72;5040403;28;20083;-68
2022/12/13 05:59:37;;;;;;;31.85;15.38;;;;;;;-6.52;100.00;101068.63;5046401;28;20040;-68
2022/12/13 06:02:03;;;;;;;33.20;17.65;;;;;;;-6.49;100.00;101064.13;5042047;28;20395;-70
2022/12/13 06:04:28;;;;;;;26.80;14.63;;;;;;;-6.50;100.00;101067.63;5043825;28;20431;-69
2022/12/13 06:06:53;;;;;;;36.40;17.65;;;;;;;-6.61;100.00;101055.22;5043807;28;20029;-70
2022/12/13 06:09:20;;;;;;;33.85;16.08;;;;;;;-6.62;100.00;101060.53;5036893;28;20064;-69
2022/12/13 06:11:45;;;;;;;29.83;14.45;;;;;;;-6.65;100.00;101071.06;5038717;28;20037;-69
2022/12/13 06:14:10;;;;;;;31.88;15.27;;;;;;;-6.67;100.00;101067.69;5036097;28;20506;-69
2022/12/13 06:16:36;;;;;;;32.50;15.10;;;;;;;-6.70;100.00;101073.06;5023517;28;20025;-68
2022/12/13 06:19:01;;;;;;;29.83;15.15;;;;;;;-6.69;100.00;101078.16;5031049;28;20021;-69
2022/12/13 06:21:27;;;;;;;30.95;14.10;;;;;;;-6.69;100.00;101074.72;5030928;28;20033;-69
2022/12/13 06:23:53;;;;;;;31.42;14.80;;;;;;;-6.70;100.00;101075.66;5031179;28;20045;-68
2022/12/13 06:26:19;;;;;;;30.40;16.08;;;;;;;-6.70;100.00;101067.88;5036644;28;20037;-68
2022/12/13 06:28:44;;;;;;;32.20;14.88;;;;;;;-6.71;100.00;101071.34;5044534;28;20040;-68
2022/12/13 06:31:09;;;;;;;29.67;15.07;;;;;;;-6.74;100.00;101068.94;5041857;28;20102;-68
2022/12/13 06:33:35;;;;;;;30.75;15.30;;;;;;;-6.89;100.00;101055.00;5040677;28;20071;-68
2022/12/13 06:36:02;;;;;;;30.90;14.02;;;;;;;-6.77;100.00;101066.50;5037703;28;20105;-68
2022/12/13 06:38:28;;;;;;;30.63;14.40;;;;;;;-6.73;100.00;101076.66;5024694;28;20639;-68
2022/12/13 06:40:53;;;;;;;34.28;15.60;;;;;;;-6.74;100.00;101077.53;5043008;28;20147;-68
2022/12/13 06:43:19;;;;;;;30.58;15.65;;;;;;;-6.75;100.00;101081.06;5038498;28;20025;-68
2022/12/13 06:45:45;;;;;;;34.30;17.00;;;;;;;-6.77;100.00;101074.28;5040102;28;20033;-68
2022/12/13 06:48:11;;;;;;;31.08;15.75;;;;;;;-6.75;100.00;101073.28;5037956;28;20041;-69
2022/12/13 06:50:36;;;;;;;30.75;15.60;;;;;;;-6.77;100.00;101084.66;5038054;28;20043;-69
2022/12/13 06:53:02;;;;;;;34.40;16.60;;;;;;;-6.88;100.00;101067.91;5038558;28;20427;-69
2022/12/13 06:55:28;;;;;;;34.47;16.02;;;;;;;-6.79;100.00;101074.34;5036185;28;20037;-65
2022/12/13 06:57:53;;;;;;;31.17;15.95;;;;;;;-6.83;100.00;101072.84;5031225;28;20489;-65
2022/12/13 07:00:18;;;;;;;31.55;14.38;;;;;;;-6.78;100.00;101080.41;5031109;28;20033;-65
2022/12/13 07:02:44;;;;;;;34.35;15.75;;;;;;;-6.77;100.00;101084.66;5030894;28;20033;-65
2022/12/13 07:05:09;;;;;;;33.22;17.40;;;;;;;-6.76;100.00;101074.19;5030927;28;20575;-65
2022/12/13 07:07:35;;;;;;;34.28;16.15;;;;;;;-6.72;100.00;101080.91;5030426;28;20044;-65
2022/12/13 07:10:00;;;;;;;32.50;16.85;;;;;;;-6.71;100.00;101079.13;5030756;28;20115;-65
2022/12/13 07:12:26;;;;;;;33.42;15.63;;;;;;;-6.69;100.00;101087.69;5030688;28;20029;-65
2022/12/13 07:14:51;;;;;;;32.60;16.95;;;;;;;-6.74;100.00;101081.91;5012975;28;20026;-65
2022/12/13 07:17:16;;;;;;;37.13;18.17;;;;;;;-6.71;100.00;101079.97;5044031;28;20387;-65
2022/12/13 07:19:42;;;;;;;38.20;19.40;;;;;;;-6.66;100.00;101080.56;5049684;28;20033;-65
2022/12/13 07:22:07;;;;;;;35.25;16.98;;;;;;;-6.66;100.00;101083.16;5042732;28;20115;-65
2022/12/13 07:24:34;;;;;;;34.50;15.95;;;;;;;-6.69;100.00;101070.38;5049087;28;20100;-65
2022/12/13 07:26:59;;;;;;;39.60;19.73;;;;;;;-6.62;100.00;101079.50;5049815;28;20485;-65
2022/12/13 07:29:24;;;;;;;33.92;17.45;;;;;;;-6.61;100.00;101082.94;5049642;28;20048;-65
2022/12/13 07:31:50;;;;;;;35.88;15.30;;;;;;;-6.59;100.00;101083.69;5049717;28;20064;-65
2022/12/13 07:34:15;;;;;;;33.63;17.42;;;;;;;-6.58;100.00;101082.75;5049571;28;20025;-65
2022/12/13 07:36:40;;;;;;;32.67;16.17;;;;;;;-6.58;100.00;101087.13;5049159;28;20033;-65
2022/12/13 07:39:06;;;;;;;40.95;20.23;;;;;;;-6.61;100.00;101085.53;5049107;28;20036;-65
2022/12/13 07:41:31;;;;;;;33.17;18.52;;;;;;;-6.61;100.00;101085.53;5049431;28;20064;-65
2022/12/13 07:43:57;;;;;;;34.45;18.58;;;;;;;-6.61;100.00;101086.34;5049310;28;20463;-66
2022/12/13 07:46:24;;;;;;;34.08;16.67;;;;;;;-6.68;100.00;101077.25;5049283;28;20962;-65
2022/12/13 07:48:49;;;;;;;34.20;19.27;;;;;;;-6.63;100.00;101085.63;5049637;28;20094;-65
2022/12/13 07:51:14;;;;;;;34.83;17.40;;;;;;;-6.63;100.00;101085.63;5031337;28;20491;-65
2022/12/13 07:53:40;;;;;;;36.13;19.13;;;;;;;-6.65;100.00;101090.03;5049183;28;20039;-65
2022/12/13 07:56:08;;;;;;;36.72;19.25;;;;;;;-6.62;100.00;101097.66;5049306;28;20036;-65
2022/12/13 07:58:33;;;;;;;34.67;18.88;;;;;;;-6.58;100.00;101100.09;5049241;28;20072;-65
2022/12/13 08:01:01;;;;;;;37.90;18.40;;;;;;;-6.58;100.00;101100.91;5049206;28;20116;-65
2022/12/13 08:03:28;;;;;;;34.53;18.80;;;;;;;-6.58;100.00;101098.31;5049222;28;20021;-65
2022/12/13 08:06:08;;;;;;;37.97;19.42;;;;;;;-6.55;100.00;101105.13;5049007;28;20071;-65
2022/12/13 08:08:34;;;;;;;37.95;19.20;;;;;;;-6.55;100.00;101102.53;5031195;28;20387;-64
2022/12/13 08:11:07;;;;;;;37.20;17.52;;;;;;;-6.53;100.00;101098.09;5040062;28;20033;-64
2022/12/13 08:13:33;;;;;;;34.20;18.10;;;;;;;-6.51;100.00;101091.91;5030010;28;20045;-64
2022/12/13 08:16:00;;;;;;;34.35;19.35;;;;;;;-6.49;100.00;101091.84;5029471;28;20026;-64
2022/12/13 08:18:29;;;;;;;36.17;18.85;;;;;;;-6.48;100.00;101086.56;5029037;28;20044;-64
2022/12/13 08:21:03;;;;;;;37.85;19.67;;;;;;;-6.44;100.00;101093.25;5029337;28;20032;-64
2022/12/13 08:23:32;;;;;;;37.10;19.48;;;;;;;-6.42;100.00;101094.03;5029250;28;20379;-64
2022/12/13 08:25:59;;;;;;;40.03;19.00;;;;;;;-6.38;100.00;101096.47;5029037;28;20041;-64
2022/12/13 08:28:25;;;;;;;36.97;19.25;;;;;;;-6.34;100.00;101093.63;5029585;28;20049;-64
2022/12/13 08:30:51;;;;;;;41.53;20.17;;;;;;;-6.27;100.00;101094.13;5029900;28;20044;-64
2022/12/13 08:33:17;;;;;;;37.10;17.98;;;;;;;-6.29;100.00;101085.56;5029682;28;20022;-64
2022/12/13 08:35:43;;;;;;;40.95;19.13;;;;;;;-6.18;100.00;101091.03;5029334;28;20022;-64
2022/12/13 08:38:09;;;;;;;35.33;20.95;;;;;;;-6.09;100.00;101103.50;5012239;28;20029;-64
2022/12/13 08:40:35;;;;;;;37.70;18.95;;;;;;;-6.05;100.00;101104.16;5029667;28;20138;-64
2022/12/13 08:43:01;;;;;;;40.72;19.40;;;;;;;-6.01;100.00;101108.28;5029071;28;20064;-64
2022/12/13 08:45:27;;;;;;;38.63;19.17;;;;;;;-5.96;100.00;101111.47;5011556;28;20037;-64
2022/12/13 08:47:53;;;;;;;38.05;17.92;;;;;;;-5.97;100.00;101105.44;5029161;28;20041;-65
2022/12/13 08:50:18;;;;;;;37.60;22.35;;;;;;;-5.88;100.00;101111.84;5029538;28;20113;-65
2022/12/13 08:52:44;;;;;;;38.17;20.13;;;;;;;-5.85;100.00;101114.25;5029252;28;20116;-65
2022/12/13 08:55:11;;;;;;;37.63;18.23;;;;;;;-5.82;100.00;101101.09;5029708;28;20022;-65
2022/12/13 08:57:37;;;;;;;38.30;19.88;;;;;;;-5.76;100.00;101105.16;5029663;28;20456;-65
2022/12/13 09:00:10;;;;;;;39.33;20.92;;;;;;;-5.59;100.00;101115.41;5029587;28;20547;-65
2022/12/13 09:02:35;;;;;;;41.58;21.08;;;;;;;-5.47;100.00;101116.50;5012248;28;20387;-65
2022/12/13 09:05:02;;;;;;;42.28;20.88;;;;;;;-5.37;100.00;101122.84;5029500;28;20029;-65
2022/12/13 09:07:27;;;;;;;42.92;21.10;;;;;;;-5.28;100.00;101129.28;5029705;28;20044;-65
2022/12/13 09:09:53;;;;;;;43.50;21.90;;;;;;;-5.18;100.00;101121.78;5029541;28;20124;-64
2022/12/13 09:12:18;;;;;;;45.30;22.08;;;;;;;-5.08;100.00;101122.94;5029515;28;20033;-65
2022/12/13 09:14:45;;;;;;;41.75;19.73;;;;;;;-5.00;100.00;101122.47;5029123;28;20033;-65
2022/12/13 09:17:11;;;;;;;36.03;21.80;;;;;;;-5.00;100.00;101099.06;5029332;28;20035;-65
2022/12/13 09:19:36;;;;;;;41.53;22.38;;;;;;;-4.89;100.00;101115.72;5029432;28;20120;-65
2022/12/13 09:22:01;;;;;;;43.88;20.55;;;;;;;-4.82;100.00;101117.94;5029789;28;20041;-65
2022/12/13 09:24:27;;;;;;;42.13;21.73;;;;;;;-4.71;100.00;101115.56;5028863;28;20052;-65
2022/12/13 09:26:52;;;;;;;41.10;21.63;;;;;;;-4.58;100.00;101107.88;5029240;28;20026;-65
2022/12/13 09:29:18;;;;;;;33.92;19.75;;;;;;;-4.55;100.00;101105.06;5029338;28;20059;-65
2022/12/13 09:31:43;;;;;;;38.53;21.65;;;;;;;-4.49;100.00;101110.72;5032734;28;20036;-65
2022/12/13 09:34:10;;;;;;;37.45;22.63;;;;;;;-4.42;100.00;101121.59;5032831;28;20100;-65
2022/12/13 09:36:35;;;;;;;39.38;21.48;;;;;;;-4.39;100.00;101113.59;5032791;28;20488;-65
2022/12/13 09:39:01;;;;;;;34.25;19.98;;;;;;;-4.34;100.00;101111.56;5014858;28;20029;-65
2022/12/13 09:41:34;;;;;;;39.33;21.27;;;;;;;-4.30;100.00;101112.19;5032401;28;20491;-65
2022/12/13 09:44:05;;;;;;;37.60;21.63;;;;;;;-4.16;100.00;101120.00;5032242;28;20091;-65
2022/12/13 09:46:36;;;;;;;41.63;21.77;;;;;;;-4.09;100.00;101115.25;5032297;28;20041;-65
2022/12/13 09:49:06;;;;;;;38.88;21.58;;;;;;;-3.93;100.00;101122.94;5032290;28;20021;-65
2022/12/13 09:51:32;;;;;;;38.95;22.38;;;;;;;-3.84;100.00;101114.56;5032204;28;20052;-65
2022/12/13 09:53:59;;;;;;;39.60;20.30;;;;;;;-3.71;100.00;101117.22;5031995;28;20057;-65
2022/12/13 09:56:26;;;;;;;40.08;23.52;;;;;;;-3.61;100.00;101118.31;5032232;28;20113;-65
2022/12/13 09:58:54;;;;;;;40.72;21.70;;;;;;;-3.61;100.00;101087.84;5032257;28;20033;-65
2022/12/13 10:01:20;;;;;;;38.22;22.55;;;;;;;-3.41;100.00;101103.94;5032029;28;20452;-65
2022/12/13 10:03:50;;;;;;;36.95;20.27;;;;;;;-3.33;100.00;101089.50;5032220;28;20059;-65
2022/12/13 10:06:19;;;;;;;36.28;22.15;;;;;;;-3.22;100.00;101088.78;5032247;28;20424;-65
2022/12/13 10:08:51;;;;;;;38.80;18.95;;;;;;;-3.10;100.00;101080.13;5032046;28;20423;-64
2022/12/13 10:11:19;;;;;;;37.75;20.35;;;;;;;-2.92;100.00;101082.44;5031428;28;20030;-65
2022/12/13 10:13:50;;;;;;;38.92;20.83;;;;;;;-2.80;100.00;101084.22;5034424;28;20025;-65
2022/12/13 10:16:41;;;;;;;39.33;21.23;;;;;;;-2.72;100.00;101081.94;5033449;28;20115;-65
2022/12/13 10:19:31;;;;;;;36.67;21.87;;;;;;;-2.68;100.00;101085.16;5033914;28;20025;-72
2022/12/13 10:21:58;;;;;;;31.20;18.17;;;;;;;-2.63;100.00;101066.56;5030519;28;20056;-71
2022/12/13 10:24:29;;;;;;;37.22;23.40;;;;;;;-2.65;100.00;101074.50;5025489;28;20045;-71
2022/12/13 10:27:09;;;;;;;34.47;18.95;;;;;;;-2.67;100.00;101068.56;5013865;28;20025;-71
2022/12/13 10:30:04;;;;;;;40.78;20.48;;;;;;;-2.65;100.00;101074.50;4995111;28;20464;-73
2022/12/13 10:32:32;;;;;;;41.67;21.38;;;;;;;-2.69;100.00;101063.44;5010779;28;20081;-73
2022/12/13 10:34:58;;;;;;;37.97;20.75;;;;;;;-2.63;100.00;101050.91;5015969;28;20029;-72
2022/12/13 10:37:32;;;;;;;34.75;20.25;;;;;;;-2.61;100.00;101043.81;5014053;28;20018;-72
2022/12/13 10:39:58;;;;;;;35.78;18.75;;;;;;;-2.60;100.00;101038.47;5005240;28;20426;-73
2022/12/13 10:42:24;;;;;;;41.17;21.33;;;;;;;-2.51;100.00;101040.44;5004756;28;20050;-74
2022/12/13 10:45:15;;;;;;;39.40;18.90;;;;;;;-2.40;100.00;101044.06;5005085;28;20026;-73
2022/12/13 10:47:43;;;;;;;40.67;20.58;;;;;;;-2.37;100.00;101039.47;5005459;28;20033;-72
2022/12/13 10:50:25;;;;;;;32.88;18.33;;;;;;;-2.27;100.00;101047.50;5005089;28;20028;-73
2022/12/13 10:52:51;;;;;;;34.80;18.38;;;;;;;-2.28;100.00;101048.41;5005447;28;20101;-74
2022/12/13 10:55:32;;;;;;;37.88;19.35;;;;;;;-2.27;100.00;101035.25;5005732;28;20013;-73
2022/12/13 10:58:06;;;;;;;35.88;16.95;;;;;;;-2.13;100.00;101033.44;5001414;28;20021;-73
2022/12/13 11:00:39;;;;;;;36.38;19.33;;;;;;;-2.05;100.00;101033.72;5005270;28;20109;-74
2022/12/13 11:03:06;;;;;;;36.33;18.23;;;;;;;-2.00;100.00;101029.00;5005339;28;20030;-72
2022/12/13 11:05:34;;;;;;;35.72;18.05;;;;;;;-2.05;100.00;101024.09;5005810;28;20120;-72
2022/12/13 11:08:29;;;;;;;37.50;20.10;;;;;;;-1.94;100.00;101022.47;5004908;28;20045;-74
2022/12/13 11:11:03;;;;;;;35.38;17.88;;;;;;;-1.90;100.00;101016.09;4995645;28;20560;-72
2022/12/13 11:13:52;;;;;;;32.97;18.73;;;;;;;-1.90;100.00;101016.09;5010760;28;20033;-71
2022/12/13 11:16:31;;;;;;;31.40;16.75;;;;;;;-1.99;100.00;101007.16;5010815;28;20018;-68
2022/12/13 11:19:04;;;;;;;34.15;16.48;;;;;;;-2.07;100.00;100993.78;5010612;28;20104;-71